Time;durP1;ratioP1;P1;durP2;ratioP2;P2;SDS_P1;SDS_P2;PMS_P1;PMS_P2;Temp;Humidity;BMP_temperature;BMP_pressure;BME280_temperature;BME280_humidity;BME280_pressure;Samples;Min_cycle;Max_cycle;Signal;HPM_P1;HPM_P2
2022/10/11 00:01:55;;;;;;;;;;;10.90;99.90;;;;;;5061855;28;19909;-78
2022/10/11 00:04:21;;;;;;;;;;;10.80;99.90;;;;;;5061326;28;20392;-78
2022/10/11 00:06:46;;;;;;;;;;;10.80;99.90;;;;;;5043138;28;19998;-78
2022/10/11 00:09:12;;;;;;;;;;;10.80;99.90;;;;;;5061364;28;19909;-78
2022/10/11 00:11:37;;;;;;;;;;;10.70;99.90;;;;;;5061931;28;19968;-79
2022/10/11 00:14:04;;;;;;;;;;;10.70;99.90;;;;;;5061277;28;19938;-78
2022/10/11 00:16:29;;;;;;;;;;;10.60;99.90;;;;;;5061708;28;19995;-78
2022/10/11 00:18:54;;;;;;;;;;;10.60;99.90;;;;;;5043815;28;19959;-79
2022/10/11 00:21:20;;;;;;;;;;;10.60;99.90;;;;;;5061322;28;20131;-79
2022/10/11 00:23:46;;;;;;;;;;;10.50;99.90;;;;;;5060850;28;19909;-78
2022/10/11 00:26:12;;;;;;;;;;;10.50;99.90;;;;;;5061562;28;19936;-79
2022/10/11 00:28:37;;;;;;;;;;;10.50;99.90;;;;;;5061295;28;20122;-78
2022/10/11 00:31:07;;;;;;;;;;;10.40;99.90;;;;;;5043732;28;19913;-78
2022/10/11 00:33:32;;;;;;;;;;;10.40;99.90;;;;;;5061216;28;20328;-78
2022/10/11 00:35:58;;;;;;;;;;;10.40;99.90;;;;;;5061271;28;19913;-79
2022/10/11 00:38:23;;;;;;;;;;;10.30;99.90;;;;;;5043325;28;20285;-78
2022/10/11 00:40:49;;;;;;;;;;;10.30;99.90;;;;;;5061269;28;19909;-78
2022/10/11 00:43:19;;;;;;;;;;;10.30;99.90;;;;;;5058347;28;20244;-77
2022/10/11 00:45:57;;;;;;;;;;;10.30;99.90;;;;;;5039753;28;19916;-78
2022/10/11 00:48:26;;;;;;;;;;;10.30;99.90;;;;;;5057464;28;19909;-77
2022/10/11 00:50:52;;;;;;;;;;;10.30;99.90;;;;;;5057526;28;19908;-77
2022/10/11 00:53:18;;;;;;;;;;;10.20;99.90;;;;;;5057014;28;19909;-77
2022/10/11 00:55:47;;;;;;;;;;;10.20;99.90;;;;;;5057492;28;19913;-78
2022/10/11 00:58:13;;;;;;;;;;;10.20;99.90;;;;;;5057824;28;20401;-77
2022/10/11 01:00:39;;;;;;;;;;;10.20;99.90;;;;;;5057077;28;19915;-77
2022/10/11 01:03:04;;;;;;;;;;;10.20;99.90;;;;;;5057114;28;20500;-77
2022/10/11 01:05:30;;;;;;;;;;;10.20;99.90;;;;;;5057120;28;19909;-77
2022/10/11 01:07:57;;;;;;;;;;;10.30;99.90;;;;;;5057080;28;19931;-77
2022/10/11 01:10:22;;;;;;;;;;;10.20;99.90;;;;;;5039827;28;19909;-76
2022/10/11 01:13:02;;;;;;;;;;;10.20;99.90;;;;;;5057500;28;19988;-77
2022/10/11 01:15:41;;;;;;;;;;;10.20;99.90;;;;;;5057291;28;19952;-77
2022/10/11 01:18:24;;;;;;;;;;;10.20;99.90;;;;;;5056020;28;20428;-77
2022/10/11 01:20:49;;;;;;;;;;;10.20;99.90;;;;;;5057524;28;19916;-77
2022/10/11 01:23:34;;;;;;;;;;;10.10;99.90;;;;;;5057220;28;20366;-77
2022/10/11 01:26:25;;;;;;;;;;;10.10;99.90;;;;;;5056753;28;19916;-77
2022/10/11 01:28:58;;;;;;;;;;;10.00;99.90;;;;;;5033236;28;20274;-77
2022/10/11 01:31:25;;;;;;;;;;;9.90;99.90;;;;;;5038897;28;19913;-79
2022/10/11 01:33:53;;;;;;;;;;;10.00;99.90;;;;;;5056777;28;19916;-78
2022/10/11 01:36:27;;;;;;;;;;;9.90;99.90;;;;;;5039291;28;19909;-77
2022/10/11 01:38:57;;;;;;;;;;;9.90;99.90;;;;;;5055927;28;20347;-77
2022/10/11 01:41:22;;;;;;;;;;;9.90;99.90;;;;;;5056377;28;19909;-77
2022/10/11 01:43:48;;;;;;;;;;;9.80;99.90;;;;;;5056291;28;19909;-77
2022/10/11 01:46:14;;;;;;;;;;;9.80;99.90;;;;;;5056655;28;19913;-77
2022/10/11 01:48:50;;;;;;;;;;;9.70;99.90;;;;;;5056372;28;20062;-78
2022/10/11 01:51:17;;;;;;;;;;;9.60;99.90;;;;;;5056419;28;19909;-78
2022/10/11 01:53:56;;;;;;;;;;;9.60;99.90;;;;;;5038107;28;19909;-77
2022/10/11 01:56:30;;;;;;;;;;;9.60;99.90;;;;;;5038464;28;19916;-78
2022/10/11 01:59:14;;;;;;;;;;;9.60;99.90;;;;;;5056219;28;19920;-77
2022/10/11 02:01:51;;;;;;;;;;;9.60;99.90;;;;;;5056466;28;20281;-78
2022/10/11 02:04:23;;;;;;;;;;;9.50;99.90;;;;;;5055838;28;19921;-77
2022/10/11 02:06:52;;;;;;;;;;;9.60;99.90;;;;;;5038372;28;19913;-77
2022/10/11 02:09:23;;;;;;;;;;;9.50;99.90;;;;;;5056231;28;19909;-77
2022/10/11 02:11:49;;;;;;;;;;;9.50;99.90;;;;;;5056357;28;19959;-77
2022/10/11 02:14:17;;;;;;;;;;;9.50;99.90;;;;;;5037227;28;20317;-77
2022/10/11 02:16:44;;;;;;;;;;;9.50;99.90;;;;;;5055737;28;19909;-77
2022/10/11 02:19:12;;;;;;;;;;;9.50;99.90;;;;;;5055175;28;19908;-78
2022/10/11 02:21:39;;;;;;;;;;;9.50;99.90;;;;;;5056420;28;19908;-78
2022/10/11 02:24:07;;;;;;;;;;;9.60;99.90;;;;;;5037114;28;19909;-77
2022/10/11 02:26:33;;;;;;;;;;;9.60;99.90;;;;;;5056157;28;19913;-77
2022/10/11 02:29:02;;;;;;;;;;;9.70;99.90;;;;;;5055657;28;20374;-77
2022/10/11 02:31:29;;;;;;;;;;;9.60;99.90;;;;;;5041184;28;19920;-77
2022/10/11 02:34:00;;;;;;;;;;;9.70;99.90;;;;;;5059730;28;20464;-77
2022/10/11 02:36:46;;;;;;;;;;;9.70;99.90;;;;;;5059981;28;19931;-77
2022/10/11 02:39:35;;;;;;;;;;;9.70;99.90;;;;;;5059042;28;19919;-77
2022/10/11 02:42:03;;;;;;;;;;;9.60;99.90;;;;;;5051208;28;19991;-77
2022/10/11 02:44:32;;;;;;;;;;;9.70;99.90;;;;;;5059297;28;19932;-77
2022/10/11 02:46:59;;;;;;;;;;;9.60;99.90;;;;;;5059483;28;19931;-77
2022/10/11 02:49:25;;;;;;;;;;;9.60;99.90;;;;;;5059918;28;20003;-77
2022/10/11 02:51:50;;;;;;;;;;;9.50;99.90;;;;;;5041275;28;19908;-77
2022/10/11 02:54:16;;;;;;;;;;;9.50;99.90;;;;;;5059151;28;20479;-78
2022/10/11 02:56:42;;;;;;;;;;;9.50;99.90;;;;;;5059472;28;19952;-78
2022/10/11 02:59:07;;;;;;;;;;;9.50;99.90;;;;;;5059458;28;19908;-77
2022/10/11 03:01:33;;;;;;;;;;;9.50;99.90;;;;;;5059130;28;20281;-77
2022/10/11 03:03:58;;;;;;;;;;;9.40;99.90;;;;;;5058709;28;20000;-77
2022/10/11 03:06:23;;;;;;;;;;;9.40;99.90;;;;;;5059196;28;19916;-78
2022/10/11 03:08:49;;;;;;;;;;;9.40;99.90;;;;;;5058939;28;19909;-77
2022/10/11 03:11:14;;;;;;;;;;;9.40;99.90;;;;;;5059425;28;19909;-78
2022/10/11 03:13:40;;;;;;;;;;;9.40;99.90;;;;;;5059012;28;20016;-78
2022/10/11 03:16:05;;;;;;;;;;;9.40;99.90;;;;;;5058803;28;19912;-78
2022/10/11 03:18:31;;;;;;;;;;;9.40;99.90;;;;;;5041299;28;20003;-77
2022/10/11 03:20:56;;;;;;;;;;;9.40;99.90;;;;;;5058789;28;19909;-77
2022/10/11 03:23:22;;;;;;;;;;;9.30;99.90;;;;;;5059300;28;19909;-77
2022/10/11 03:25:47;;;;;;;;;;;9.30;99.90;;;;;;5058729;28;19908;-77
2022/10/11 03:28:13;;;;;;;;;;;9.20;99.90;;;;;;5041548;28;19936;-77
2022/10/11 03:30:38;;;;;;;;;;;9.20;99.90;;;;;;5059252;28;19947;-77
2022/10/11 03:33:04;;;;;;;;;;;9.20;99.90;;;;;;5058840;28;19912;-77
2022/10/11 03:35:29;;;;;;;;;;;9.20;99.90;;;;;;5058481;28;20007;-78
2022/10/11 03:37:54;;;;;;;;;;;9.20;99.90;;;;;;5058685;28;20255;-77
2022/10/11 03:40:20;;;;;;;;;;;9.10;99.90;;;;;;5058753;28;19931;-77
2022/10/11 03:42:45;;;;;;;;;;;9.10;99.90;;;;;;5057469;28;19909;-77
2022/10/11 03:45:11;;;;;;;;;;;9.10;99.90;;;;;;5040296;28;20011;-77
2022/10/11 03:47:37;;;;;;;;;;;9.10;99.90;;;;;;5058722;28;19924;-77
2022/10/11 03:50:04;;;;;;;;;;;9.10;99.90;;;;;;5058730;28;19909;-77
2022/10/11 03:52:29;;;;;;;;;;;9.00;99.90;;;;;;5040341;28;20126;-77
2022/10/11 03:54:55;;;;;;;;;;;8.90;99.90;;;;;;5058396;28;19952;-78
2022/10/11 03:57:20;;;;;;;;;;;8.90;99.90;;;;;;5058505;28;19982;-77
2022/10/11 03:59:46;;;;;;;;;;;8.90;99.90;;;;;;5058362;28;20259;-77
2022/10/11 04:02:12;;;;;;;;;;;8.80;99.90;;;;;;5057804;28;19908;-78
2022/10/11 04:04:38;;;;;;;;;;;8.80;99.90;;;;;;5058747;28;20020;-77
2022/10/11 04:07:03;;;;;;;;;;;8.70;99.90;;;;;;5058199;28;19912;-77
2022/10/11 04:09:29;;;;;;;;;;;8.70;99.90;;;;;;5058211;28;19909;-77
2022/10/11 04:11:54;;;;;;;;;;;8.70;99.90;;;;;;5058350;28;19916;-78
2022/10/11 04:14:20;;;;;;;;;;;8.60;99.90;;;;;;5040059;28;20291;-77
2022/10/11 04:16:45;;;;;;;;;;;8.60;99.90;;;;;;5058875;28;19995;-78
2022/10/11 04:19:11;;;;;;;;;;;8.60;99.90;;;;;;5057899;28;19963;-77
2022/10/11 04:21:36;;;;;;;;;;;8.60;99.90;;;;;;5058400;28;19987;-77
2022/10/11 04:24:02;;;;;;;;;;;8.60;99.90;;;;;;5058215;28;19916;-77
2022/10/11 04:26:27;;;;;;;;;;;8.60;99.90;;;;;;5058207;28;19913;-77
2022/10/11 04:28:52;;;;;;;;;;;8.60;99.90;;;;;;5040011;28;19935;-76
2022/10/11 04:31:18;;;;;;;;;;;8.50;99.90;;;;;;5057536;28;19912;-77
2022/10/11 04:33:43;;;;;;;;;;;8.50;99.90;;;;;;5057614;28;19909;-77
2022/10/11 04:36:09;;;;;;;;;;;8.50;99.90;;;;;;5057807;28;19908;-78
2022/10/11 04:38:34;;;;;;;;;;;8.40;99.90;;;;;;5057746;28;19913;-77
2022/10/11 04:41:10;;;;;;;;;;;8.40;99.90;;;;;;5057682;28;19909;-77
2022/10/11 04:43:35;;;;;;;;;;;8.40;99.90;;;;;;5057505;28;19909;-77
2022/10/11 04:46:01;;;;;;;;;;;8.40;99.90;;;;;;5057457;28;19908;-78
2022/10/11 04:48:27;;;;;;;;;;;8.40;99.90;;;;;;5057764;28;19909;-77
2022/10/11 04:50:52;;;;;;;;;;;8.40;99.90;;;;;;5057399;28;19924;-78
2022/10/11 04:53:18;;;;;;;;;;;8.50;99.90;;;;;;5058195;28;19963;-78
2022/10/11 04:55:43;;;;;;;;;;;8.50;99.90;;;;;;5057330;28;19909;-77
2022/10/11 04:58:09;;;;;;;;;;;8.50;99.90;;;;;;5057353;28;19913;-77
2022/10/11 05:00:34;;;;;;;;;;;8.50;99.90;;;;;;5057506;28;20348;-77
2022/10/11 05:03:00;;;;;;;;;;;8.50;99.90;;;;;;5056261;28;19916;-77
2022/10/11 05:05:25;;;;;;;;;;;8.50;99.90;;;;;;5080670;22;19931;-82
2022/10/11 05:07:51;;;;;;;;;;;8.50;99.90;;;;;;5057179;28;19956;-82
2022/10/11 05:10:16;;;;;;;;;;;8.50;99.90;;;;;;5057582;28;20297;-79
2022/10/11 05:12:42;;;;;;;;;;;8.50;99.90;;;;;;5057207;28;19916;-79
2022/10/11 05:15:08;;;;;;;;;;;8.40;99.90;;;;;;5057585;28;19909;-79
2022/10/11 05:17:33;;;;;;;;;;;8.40;99.90;;;;;;5057387;28;20484;-79
2022/10/11 05:19:59;;;;;;;;;;;8.40;99.90;;;;;;5056317;28;19909;-79
2022/10/11 05:22:24;;;;;;;;;;;8.40;99.90;;;;;;5056730;28;19919;-79
2022/10/11 05:24:50;;;;;;;;;;;8.40;99.90;;;;;;5056999;28;19963;-79
2022/10/11 05:27:15;;;;;;;;;;;8.30;99.90;;;;;;5057054;28;19951;-79
2022/10/11 05:29:41;;;;;;;;;;;8.40;99.90;;;;;;5057633;28;19909;-79
2022/10/11 05:32:06;;;;;;;;;;;8.30;99.90;;;;;;5057115;28;19909;-79
2022/10/11 05:34:31;;;;;;;;;;;8.40;99.90;;;;;;5056897;28;19916;-79
2022/10/11 05:36:57;;;;;;;;;;;8.40;99.90;;;;;;5055359;28;19909;-79
2022/10/11 05:39:22;;;;;;;;;;;8.50;99.90;;;;;;5055890;28;20018;-79
2022/10/11 05:41:48;;;;;;;;;;;8.50;99.90;;;;;;5055815;28;19916;-79
2022/10/11 05:44:13;;;;;;;;;;;8.50;99.90;;;;;;5053356;28;19909;-79
2022/10/11 05:46:39;;;;;;;;;;;8.40;99.90;;;;;;5052340;28;20011;-79
2022/10/11 05:49:04;;;;;;;;;;;8.40;99.90;;;;;;5053934;28;20404;-79
2022/10/11 05:51:30;;;;;;;;;;;8.40;99.90;;;;;;5052242;28;19959;-79
2022/10/11 05:53:55;;;;;;;;;;;8.40;99.90;;;;;;5052981;28;19909;-78
2022/10/11 05:56:22;;;;;;;;;;;8.40;99.90;;;;;;5053215;28;20366;-79
2022/10/11 05:58:48;;;;;;;;;;;8.40;99.90;;;;;;5053289;28;19998;-78
2022/10/11 06:01:17;;;;;;;;;;;8.30;99.90;;;;;;5053315;28;20493;-80
2022/10/11 06:03:42;;;;;;;;;;;8.40;99.90;;;;;;5053424;28;20004;-79
2022/10/11 06:06:08;;;;;;;;;;;8.40;99.90;;;;;;5052832;28;19947;-79
2022/10/11 06:08:33;;;;;;;;;;;8.40;99.90;;;;;;5052005;28;20537;-80
2022/10/11 06:11:07;;;;;;;;;;;8.40;99.90;;;;;;5051953;28;19974;-79
2022/10/11 06:13:34;;;;;;;;;;;8.40;99.90;;;;;;5053233;28;19909;-79
2022/10/11 06:16:02;;;;;;;;;;;8.50;99.90;;;;;;5052923;28;19909;-79
2022/10/11 06:18:27;;;;;;;;;;;8.50;99.90;;;;;;5052872;28;19917;-78
2022/10/11 06:20:53;;;;;;;;;;;8.50;99.90;;;;;;5052745;28;20255;-79
2022/10/11 06:23:18;;;;;;;;;;;8.50;99.90;;;;;;5051365;28;19916;-78
2022/10/11 06:25:53;;;;;;;;;;;8.50;99.90;;;;;;5050941;28;19995;-79
2022/10/11 06:28:19;;;;;;;;;;;8.50;99.90;;;;;;5052696;28;19966;-78
2022/10/11 06:30:44;;;;;;;;;;;8.70;99.90;;;;;;5051372;28;19909;-79
2022/10/11 06:33:10;;;;;;;;;;;8.70;99.90;;;;;;5052804;28;19908;-78
2022/10/11 06:35:35;;;;;;;;;;;8.80;99.90;;;;;;5052372;28;20023;-78
2022/10/11 06:38:01;;;;;;;;;;;9.00;99.90;;;;;;5051214;28;20011;-78
2022/10/11 06:40:26;;;;;;;;;;;9.00;99.90;;;;;;5052452;28;19908;-78
2022/10/11 06:42:52;;;;;;;;;;;9.10;99.90;;;;;;5051212;28;19961;-78
2022/10/11 06:45:17;;;;;;;;;;;9.10;99.90;;;;;;5052664;28;19916;-78
2022/10/11 06:47:42;;;;;;;;;;;9.20;99.90;;;;;;5051566;28;19913;-80
2022/10/11 06:50:08;;;;;;;;;;;9.40;99.90;;;;;;5052025;28;19915;-79
2022/10/11 06:52:33;;;;;;;;;;;9.40;99.90;;;;;;5052526;28;20460;-79
2022/10/11 06:54:59;;;;;;;;;;;9.50;99.90;;;;;;5052293;28;19913;-80
2022/10/11 06:57:26;;;;;;;;;;;9.60;99.90;;;;;;5052807;28;19923;-79
2022/10/11 06:59:51;;;;;;;;;;;9.70;99.90;;;;;;5051663;28;20005;-79
2022/10/11 07:02:17;;;;;;;;;;;9.70;99.90;;;;;;5051476;28;20405;-79
2022/10/11 07:04:42;;;;;;;;;;;9.80;99.90;;;;;;5052362;28;19917;-79
2022/10/11 07:07:08;;;;;;;;;;;9.90;99.90;;;;;;5052537;28;19915;-80
2022/10/11 07:09:33;;;;;;;;;;;10.00;99.90;;;;;;5051033;28;19916;-79
2022/10/11 07:11:59;;;;;;;;;;;10.10;99.90;;;;;;5051130;28;19959;-79
2022/10/11 07:14:24;;;;;;;;;;;10.20;99.90;;;;;;5051984;28;19924;-78
2022/10/11 07:16:50;;;;;;;;;;;10.30;99.90;;;;;;5053306;28;19908;-79
2022/10/11 07:19:15;;;;;;;;;;;10.40;99.90;;;;;;5054662;28;20542;-79
2022/10/11 07:21:41;;;;;;;;;;;10.50;99.90;;;;;;5055882;28;19975;-79
2022/10/11 07:24:06;;;;;;;;;;;10.60;99.90;;;;;;5055482;28;20358;-79
2022/10/11 07:26:32;;;;;;;;;;;10.60;99.90;;;;;;5055654;28;19954;-79
2022/10/11 07:28:57;;;;;;;;;;;10.70;99.90;;;;;;5055648;28;19916;-79
2022/10/11 07:31:24;;;;;;;;;;;10.80;99.90;;;;;;5055542;28;19909;-79
2022/10/11 07:33:49;;;;;;;;;;;10.80;99.90;;;;;;5055136;28;19999;-79
2022/10/11 07:36:15;;;;;;;;;;;10.90;99.90;;;;;;5055599;28;19944;-79
2022/10/11 07:38:42;;;;;;;;;;;11.00;99.90;;;;;;5054298;28;20285;-80
2022/10/11 07:41:08;;;;;;;;;;;11.00;99.90;;;;;;5055623;28;19915;-79
2022/10/11 07:43:34;;;;;;;;;;;11.10;99.90;;;;;;5055271;28;19930;-79
2022/10/11 07:46:02;;;;;;;;;;;11.20;99.90;;;;;;5055540;28;20270;-79
2022/10/11 07:48:32;;;;;;;;;;;11.20;99.90;;;;;;5055445;28;19909;-79
2022/10/11 07:51:05;;;;;;;;;;;11.30;99.90;;;;;;5055332;28;20378;-79
2022/10/11 07:53:30;;;;;;;;;;;11.30;99.90;;;;;;5055353;28;20405;-79
2022/10/11 07:56:00;;;;;;;;;;;11.40;99.90;;;;;;5054971;28;19960;-79
2022/10/11 07:58:26;;;;;;;;;;;11.50;99.90;;;;;;5055498;28;20332;-79
2022/10/11 08:00:52;;;;;;;;;;;11.60;99.90;;;;;;5055087;28;19909;-79
2022/10/11 08:03:18;;;;;;;;;;;11.60;99.90;;;;;;5055039;28;19908;-79
2022/10/11 08:05:43;;;;;;;;;;;11.70;99.90;;;;;;5053226;28;19966;-79
2022/10/11 08:08:09;;;;;;;;;;;11.70;99.90;;;;;;5055039;28;19956;-79
2022/10/11 08:10:38;;;;;;;;;;;11.80;99.90;;;;;;5055328;28;19917;-79
2022/10/11 08:13:04;;;;;;;;;;;11.80;99.90;;;;;;5054615;28;19909;-79
2022/10/11 08:15:29;;;;;;;;;;;11.90;99.90;;;;;;5054527;28;19932;-79
2022/10/11 08:17:55;;;;;;;;;;;11.90;99.90;;;;;;5054554;28;20382;-79
2022/10/11 08:20:20;;;;;;;;;;;11.90;99.90;;;;;;5054468;28;19909;-79
2022/10/11 08:22:46;;;;;;;;;;;11.90;99.90;;;;;;5053163;28;20505;-79
2022/10/11 08:25:11;;;;;;;;;;;11.90;99.90;;;;;;5052983;28;19909;-79
2022/10/11 08:27:37;;;;;;;;;;;11.90;99.90;;;;;;5054357;28;20286;-79
2022/10/11 08:30:03;;;;;;;;;;;12.00;99.90;;;;;;5054370;28;20077;-79
2022/10/11 08:32:29;;;;;;;;;;;12.10;99.90;;;;;;5054556;28;20260;-79
2022/10/11 08:34:54;;;;;;;;;;;12.20;99.90;;;;;;5054382;28;19952;-79
2022/10/11 08:37:19;;;;;;;;;;;12.30;99.90;;;;;;5054710;28;19916;-79
2022/10/11 08:39:45;;;;;;;;;;;12.30;99.90;;;;;;5054916;28;19908;-78
2022/10/11 08:42:13;;;;;;;;;;;12.40;99.90;;;;;;5052825;28;19909;-79
2022/10/11 08:44:41;;;;;;;;;;;12.40;99.90;;;;;;5052886;28;19909;-79
2022/10/11 08:47:22;;;;;;;;;;;12.40;99.90;;;;;;5053668;28;19909;-79
2022/10/11 08:49:48;;;;;;;;;;;12.40;99.90;;;;;;5054160;28;19944;-78
2022/10/11 08:52:20;;;;;;;;;;;12.40;99.90;;;;;;5054072;28;19934;-80
2022/10/11 08:54:48;;;;;;;;;;;12.30;99.90;;;;;;5053735;28;19909;-78
2022/10/11 08:57:16;;;;;;;;;;;12.40;99.90;;;;;;5053928;28;19909;-79
2022/10/11 09:00:03;;;;;;;;;;;12.50;99.90;;;;;;5053919;28;19915;-78
2022/10/11 09:02:35;;;;;;;;;;;12.50;99.90;;;;;;5053995;28;20019;-79
2022/10/11 09:05:01;;;;;;;;;;;12.50;99.90;;;;;;5054095;28;20000;-79
2022/10/11 09:07:41;;;;;;;;;;;12.50;99.90;;;;;;5053856;28;19908;-79
2022/10/11 09:10:12;;;;;;;;;;;12.50;99.90;;;;;;5053669;28;20007;-78
2022/10/11 09:12:47;;;;;;;;;;;12.60;99.90;;;;;;5053798;28;19955;-78
2022/10/11 09:15:31;;;;;;;;;;;12.70;99.90;;;;;;5053404;28;20007;-80
2022/10/11 09:18:02;;;;;;;;;;;12.80;99.90;;;;;;5052171;28;20370;-78
2022/10/11 09:20:35;;;;;;;;;;;13.00;99.90;;;;;;5053591;28;20031;-78
2022/10/11 09:23:03;;;;;;;;;;;13.00;99.90;;;;;;5053708;28;19995;-78
2022/10/11 09:25:32;;;;;;;;;;;13.20;99.90;;;;;;5053171;28;20001;-79
2022/10/11 09:28:03;;;;;;;;;;;13.30;99.90;;;;;;5053745;28;19909;-78
2022/10/11 09:30:29;;;;;;;;;;;13.50;99.90;;;;;;5042639;28;19968;-79
2022/10/11 09:33:09;;;;;;;;;;;13.50;99.90;;;;;;5053168;28;19912;-79
2022/10/11 09:35:38;;;;;;;;;;;13.60;99.90;;;;;;5052822;28;19944;-78
2022/10/11 09:38:11;;;;;;;;;;;13.80;99.90;;;;;;5053197;28;19917;-78
2022/10/11 09:40:46;;;;;;;;;;;13.80;99.90;;;;;;5052196;28;19916;-78
2022/10/11 09:43:12;;;;;;;;;;;13.90;99.90;;;;;;5052312;28;20448;-78
2022/10/11 09:45:41;;;;;;;;;;;14.00;99.90;;;;;;5052478;28;19951;-79
2022/10/11 09:48:08;;;;;;;;;;;14.10;99.90;;;;;;5052880;28;19909;-79
2022/10/11 09:50:34;;;;;;;;;;;14.10;99.90;;;;;;5053123;28;20324;-80
2022/10/11 09:53:02;;;;;;;;;;;14.20;99.90;;;;;;5055640;28;19995;-79
2022/10/11 09:55:49;;;;;;;;;;;14.20;99.90;;;;;;5055280;28;19913;-79
2022/10/11 09:58:26;;;;;;;;;;;14.20;99.90;;;;;;5055217;28;20310;-80
2022/10/11 10:00:58;;;;;;;;;;;14.30;99.90;;;;;;5055176;28;21424;-80
2022/10/11 10:03:28;;;;;;;;;;;14.30;99.90;;;;;;5053563;28;19962;-79
2022/10/11 10:06:03;;;;;;;;;;;14.50;99.90;;;;;;5054213;28;19923;-79
2022/10/11 10:08:28;;;;;;;;;;;14.60;99.90;;;;;;5053747;28;20309;-79
2022/10/11 10:11:07;;;;;;;;;;;14.60;99.90;;;;;;5050885;28;19912;-79
2022/10/11 10:13:49;;;;;;;;;;;14.60;99.90;;;;;;5053212;28;20416;-79
2022/10/11 10:16:18;;;;;;;;;;;14.70;99.90;;;;;;5053738;28;20002;-78
2022/10/11 10:18:57;;;;;;;;;;;14.70;99.90;;;;;;5053456;28;19916;-78
2022/10/11 10:21:27;;;;;;;;;;;14.60;99.90;;;;;;5053657;28;19931;-79
2022/10/11 10:23:54;;;;;;;;;;;14.80;99.90;;;;;;5052703;28;19920;-79
2022/10/11 10:26:21;;;;;;;;;;;14.80;99.90;;;;;;5051893;28;19954;-79
2022/10/11 10:29:15;;;;;;;;;;;14.70;99.90;;;;;;5052506;28;20370;-79
2022/10/11 10:31:40;;;;;;;;;;;14.90;99.90;;;;;;5052508;28;19916;-79
2022/10/11 10:34:17;;;;;;;;;;;15.20;99.90;;;;;;5052404;28;19913;-78
2022/10/11 10:36:44;;;;;;;;;;;15.50;99.90;;;;;;5052025;28;19909;-79
2022/10/11 10:39:20;;;;;;;;;;;15.60;99.90;;;;;;5052446;28;20390;-79
2022/10/11 10:41:46;;;;;;;;;;;15.60;99.90;;;;;;5062934;28;19908;-80
2022/10/11 10:44:12;;;;;;;;;;;15.40;99.90;;;;;;5055260;28;20172;-80
2022/10/11 10:46:38;;;;;;;;;;;15.30;99.90;;;;;;5056956;28;19951;-80
2022/10/11 10:49:13;;;;;;;;;;;15.40;99.90;;;;;;5053631;28;19912;-79
2022/10/11 10:51:38;;;;;;;;;;;15.50;99.90;;;;;;5051338;28;19916;-80
2022/10/11 10:54:16;;;;;;;;;;;15.70;99.90;;;;;;5037632;28;20383;-79
2022/10/11 10:56:54;;;;;;;;;;;15.70;99.90;;;;;;5037035;28;19916;-79
2022/10/11 10:59:34;;;;;;;;;;;15.80;99.90;;;;;;5052733;28;20282;-78
2022/10/11 11:02:02;;;;;;;;;;;15.90;99.90;;;;;;5038772;28;19909;-80
2022/10/11 11:04:32;;;;;;;;;;;16.20;99.90;;;;;;5036798;28;19952;-80
2022/10/11 11:07:13;;;;;;;;;;;16.80;99.90;;;;;;5037493;28;19941;-79
2022/10/11 11:09:42;;;;;;;;;;;17.60;99.90;;;;;;5038642;28;20397;-79
2022/10/11 11:12:20;;;;;;;;;;;18.40;99.90;;;;;;5038922;28;19964;-80
2022/10/11 11:15:04;;;;;;;;;;;18.70;99.90;;;;;;5053049;28;19936;-79
2022/10/11 11:17:29;;;;;;;;;;;18.50;99.90;;;;;;5039645;28;19913;-79
2022/10/11 11:20:17;;;;;;;;;;;18.30;99.90;;;;;;5042583;28;19920;-80
2022/10/11 11:22:43;;;;;;;;;;;18.10;99.90;;;;;;5057134;28;19910;-81
2022/10/11 11:25:11;;;;;;;;;;;18.10;99.90;;;;;;5043299;28;19943;-80
2022/10/11 11:27:37;;;;;;;;;;;18.20;99.90;;;;;;5043598;28;19928;-79
2022/10/11 11:30:11;;;;;;;;;;;18.30;99.90;;;;;;5060512;28;19909;-79
2022/10/11 11:32:59;;;;;;;;;;;18.40;99.90;;;;;;5036889;28;19910;-79
2022/10/11 11:35:24;;;;;;;;;;;18.60;99.90;;;;;;5036315;28;19936;-80
2022/10/11 11:37:52;;;;;;;;;;;18.70;99.90;;;;;;5036293;28;19913;-79
2022/10/11 11:40:22;;;;;;;;;;;18.90;99.90;;;;;;5052301;28;19915;-80
2022/10/11 11:42:50;;;;;;;;;;;18.60;99.90;;;;;;5042593;28;19916;-80
2022/10/11 11:45:18;;;;;;;;;;;18.40;99.90;;;;;;5038629;28;20247;-79
2022/10/11 11:47:47;;;;;;;;;;;18.40;99.90;;;;;;5042301;28;20286;-81
2022/10/11 11:50:21;;;;;;;;;;;18.50;99.90;;;;;;5041530;28;19915;-80
2022/10/11 11:52:54;;;;;;;;;;;18.50;99.90;;;;;;5039390;28;19943;-80
2022/10/11 11:55:26;;;;;;;;;;;18.30;99.90;;;;;;5038903;28;19913;-79
2022/10/11 11:57:52;;;;;;;;;;;18.30;99.90;;;;;;5041904;28;19918;-81
2022/10/11 12:00:22;;;;;;;;;;;18.20;99.90;;;;;;5035188;28;19933;-79
2022/10/11 12:02:53;;;;;;;;;;;18.20;99.90;;;;;;5034744;28;20393;-80
2022/10/11 12:05:24;;;;;;;;;;;18.30;99.90;;;;;;5035777;28;19924;-80
2022/10/11 12:07:55;;;;;;;;;;;18.30;99.90;;;;;;5038873;28;19916;-79
2022/10/11 12:10:32;;;;;;;;;;;18.40;99.90;;;;;;5057700;28;20401;-83
2022/10/11 12:13:14;;;;;;;;;;;18.40;99.90;;;;;;5054847;28;19916;-82
2022/10/11 12:15:53;;;;;;;;;;;18.30;99.90;;;;;;5056170;28;19909;-80
2022/10/11 12:18:19;;;;;;;;;;;18.50;99.90;;;;;;5057991;28;20333;-80
2022/10/11 12:20:44;;;;;;;;;;;18.90;99.90;;;;;;5055401;28;19917;-79
2022/10/11 12:23:28;;;;;;;;;;;18.70;99.90;;;;;;5054572;28;19963;-80
2022/10/11 12:26:12;;;;;;;;;;;18.60;99.90;;;;;;5054322;28;19912;-79
2022/10/11 12:28:40;;;;;;;;;;;18.40;99.90;;;;;;5043505;28;19936;-79
2022/10/11 12:31:17;;;;;;;;;;;18.50;99.90;;;;;;5050343;28;19940;-80
2022/10/11 12:33:46;;;;;;;;;;;18.90;99.90;;;;;;5034688;28;20012;-80
2022/10/11 12:36:37;;;;;;;;;;;19.40;99.90;;;;;;5034368;28;20394;-83
2022/10/11 12:39:18;;;;;;;;;;;19.60;99.90;;;;;;5030694;28;19919;-85
2022/10/11 12:41:47;;;;;;;;;;;19.80;99.90;;;;;;5049445;28;19909;-85
2022/10/11 12:44:19;;;;;;;;;;;19.90;99.90;;;;;;5033796;28;19916;-85
2022/10/11 12:46:54;;;;;;;;;;;20.10;99.90;;;;;;5033051;28;19916;-84
2022/10/11 12:49:29;;;;;;;;;;;20.20;99.90;;;;;;5037661;28;19913;-80
2022/10/11 12:52:03;;;;;;;;;;;20.20;99.90;;;;;;5036899;28;19957;-81
2022/10/11 12:54:43;;;;;;;;;;;20.00;99.90;;;;;;5035386;28;20382;-81
2022/10/11 12:57:27;;;;;;;;;;;19.70;99.90;;;;;;5034552;28;19909;-80
2022/10/11 12:59:53;;;;;;;;;;;19.50;99.90;;;;;;5035095;28;19909;-80
2022/10/11 13:02:22;;;;;;;;;;;19.30;99.90;;;;;;5036547;28;19988;-80
2022/10/11 13:04:48;;;;;;;;;;;19.40;99.90;;;;;;5042104;28;19917;-80
2022/10/11 13:07:22;;;;;;;;;;;19.60;99.90;;;;;;5050178;28;19964;-79
2022/10/11 13:09:51;;;;;;;;;;;19.80;99.90;;;;;;5034881;28;19944;-80
2022/10/11 13:12:18;;;;;;;;;;;20.00;99.20;;;;;;5044221;28;19909;-80
2022/10/11 13:14:45;;;;;;;;;;;19.80;97.80;;;;;;5042401;28;19917;-80
2022/10/11 13:17:23;;;;;;;;;;;19.60;98.10;;;;;;5042391;28;19909;-79
2022/10/11 13:19:59;;;;;;;;;;;19.30;98.90;;;;;;5043509;28;20313;-81
2022/10/11 13:22:24;;;;;;;;;;;19.20;99.90;;;;;;5038676;28;19952;-82
2022/10/11 13:24:54;;;;;;;;;;;19.10;99.90;;;;;;5041719;28;19909;-79
2022/10/11 13:27:20;;;;;;;;;;;19.00;99.90;;;;;;5034570;28;19909;-79
2022/10/11 13:29:46;;;;;;;;;;;18.80;99.90;;;;;;5034809;28;19916;-80
2022/10/11 13:32:13;;;;;;;;;;;18.70;99.90;;;;;;5056557;28;19909;-80
2022/10/11 13:34:39;;;;;;;;;;;18.70;99.90;;;;;;5036890;28;19959;-80
2022/10/11 13:37:06;;;;;;;;;;;18.60;99.90;;;;;;5039579;28;19948;-81
2022/10/11 13:39:36;;;;;;;;;;;18.60;99.90;;;;;;5040355;28;19916;-80
2022/10/11 13:42:04;;;;;;;;;;;18.50;99.90;;;;;;5055547;28;19949;-82
2022/10/11 13:44:31;;;;;;;;;;;18.40;99.90;;;;;;5037596;28;20282;-82
2022/10/11 13:46:57;;;;;;;;;;;18.40;99.90;;;;;;5051770;28;19916;-82
2022/10/11 13:49:28;;;;;;;;;;;18.50;99.90;;;;;;5038235;28;20285;-82
2022/10/11 13:51:57;;;;;;;;;;;18.60;99.90;;;;;;5035977;28;19963;-82
2022/10/11 13:54:23;;;;;;;;;;;18.80;99.90;;;;;;5049668;28;19975;-82
2022/10/11 13:56:50;;;;;;;;;;;18.90;99.90;;;;;;5034094;28;19909;-81
2022/10/11 13:59:20;;;;;;;;;;;19.10;99.90;;;;;;5035835;28;19913;-81
2022/10/11 14:01:46;;;;;;;;;;;19.50;99.90;;;;;;5050585;28;19916;-81
2022/10/11 14:04:16;;;;;;;;;;;20.20;99.90;;;;;;5049934;28;19913;-81
2022/10/11 14:06:44;;;;;;;;;;;20.60;99.70;;;;;;5033051;28;19996;-81
2022/10/11 14:09:18;;;;;;;;;;;20.70;97.50;;;;;;5035056;28;20334;-81
2022/10/11 14:11:43;;;;;;;;;;;20.60;96.80;;;;;;5035350;28;19932;-81
2022/10/11 14:14:27;;;;;;;;;;;20.70;98.20;;;;;;5034293;28;19909;-81
2022/10/11 14:16:58;;;;;;;;;;;21.30;97.40;;;;;;5034153;28;19913;-81
2022/10/11 14:19:23;;;;;;;;;;;21.40;95.40;;;;;;5033145;28;19917;-81
2022/10/11 14:21:50;;;;;;;;;;;21.00;95.10;;;;;;5037298;28;19916;-81
2022/10/11 14:24:19;;;;;;;;;;;22.30;96.10;;;;;;5057954;28;19916;-81
2022/10/11 14:26:47;;;;;;;;;;;24.60;92.90;;;;;;5042024;28;19909;-82
2022/10/11 14:29:16;;;;;;;;;;;26.80;89.50;;;;;;5041219;28;19959;-81
2022/10/11 14:31:41;;;;;;;;;;;28.10;75.60;;;;;;5043412;28;20370;-82